Nearby METAR Reports

 

KBED - Bedford, Massachusetts, USA
Distance from station: W 5mi, 9km
Updated: Sat, 19-Oct-2019 4:51am EDT
Clear
Clear
 Wind from WSW
Wind: WSW 3 mph , 6 km/h
Temperature: 37°F , 3°C
Dew Point: 30°F , -1°C
Humidity: 75%
Barometer: 29.96 inHg , 1014.6 hPa
Clouds: Clear
Visibility: 10 miles , 16 km
2019/10/19 08:51 KBED 190851Z AUTO 24003KT 10SM CLR 03/M01 A2996 RMK AO2 SLP160 T00331006 53006
KBOS - Boston, Massachusetts, USA
Distance from station: SE 11mi, 18km
Updated: Sat, 19-Oct-2019 4:54am EDT
Clear
Clear
 Wind from WNW
Wind: WNW 9 mph , 15 km/h
Temperature: 46°F , 8°C
Wind Chill: 41°F , 5°C
Dew Point: 34°F , 1°C
Humidity: 62%
Barometer: 29.97 inHg , 1014.9 hPa
Clouds: Clear
Visibility: 10 miles , 16 km
2019/10/19 08:54 KBOS 190854Z 30008KT 10SM CLR 08/01 A2997 RMK AO2 SLP148 T00780011 53007
 
KBVY - Beverly, Massachusetts, USA
Distance from station: ENE 17mi, 27km
Updated: Sat, 19-Oct-2019 4:53am EDT
Clear
Clear
 Wind from W
Wind: W 6 mph , 9 km/h
Temperature: 39°F , 4°C
Wind Chill: 35°F , 2°C
Dew Point: 34°F , 1°C
Humidity: 81%
Barometer: 29.95 inHg , 1014.2 hPa
Clouds: Clear
Visibility: 10 miles , 16 km
2019/10/19 08:53 KBVY 190853Z AUTO 28005KT 10SM CLR 04/01 A2995 RMK AO2 SLP139 T00390006 53006
KMQE - East Milton, Massachusetts, USA
Distance from station: SSE 17mi, 28km
Updated: Fri, 18-Oct-2019 1:56pm EDT
NOT Current

 Wind from NW
Wind: NW 18 mph , 30 km/h, Gust: 26 mph , 43 km/h
Temperature: 54°F , 12°C
Dew Point: 37°F , 3°C
Humidity: 54%
Barometer: 29.70 inHg , 1005.8 hPa
2019/10/18 17:56 KMQE 181756Z AUTO 31016G23KT 12/03 A2970 RMK AO1 PK WND 31026/1713 SLP069 T01220033 10122 20083 51006
 
KLWM - Lawrence, Massachusetts, USA
Distance from station: N 18mi, 29km
Updated: Sat, 19-Oct-2019 4:54am EDT
Clear
Clear
 Wind from W
Wind: W 7 mph , 11 km/h
Temperature: 39°F , 4°C
Wind Chill: 34°F , 1°C
Dew Point: 34°F , 1°C
Humidity: 81%
Barometer: 29.98 inHg , 1015.2 hPa
Clouds: Clear
Visibility: 10 miles , 16 km
2019/10/19 08:54 KLWM 190854Z AUTO 27006KT 10SM CLR 04/01 A2998 RMK AO2 SLP152 T00440006 53005
KOWD - Norwood, Massachusetts, USA
Distance from station: S 19mi, 31km
Updated: Sat, 19-Oct-2019 4:53am EDT
Clear
Clear
 Wind from calm
Wind: Calm
Temperature: 36°F , 2°C
Dew Point: 30°F , -1°C
Humidity: 81%
Barometer: 29.98 inHg , 1015.2 hPa
Clouds: Clear
Visibility: 10 miles , 16 km
2019/10/19 08:53 KOWD 190853Z AUTO 00000KT 10SM CLR 02/M01 A2998 RMK AO2 SLP150 T00221006 53007
 
KASH - Nashua/Boire Fld, New Hampshire, USA
Distance from station: NW 28mi, 45km
Updated: Sat, 19-Oct-2019 4:56am EDT
Clear
Clear
 Wind from calm
Wind: Calm
Temperature: 36°F , 2°C
Dew Point: 34°F , 1°C
Humidity: 93%
Barometer: 29.98 inHg , 1015.2 hPa
Clouds: Clear
Visibility: 10 miles , 16 km
2019/10/19 08:56 KASH 190856Z AUTO 00000KT 10SM CLR 02/01 A2998 RMK AO2 SLP156 6//// T00220011 53006 PNO $
KFIT - Fitchburg, Massachusetts, USA
Distance from station: WNW 29mi, 47km
Updated: Sat, 19-Oct-2019 4:52am EDT
Clear
Clear
 Wind from calm
Wind: Calm
Temperature: 36°F , 2°C
Dew Point: 32°F , 0°C
Humidity: 87%
Barometer: 29.98 inHg , 1015.2 hPa
Clouds: Clear
Visibility: 10 miles , 16 km
2019/10/19 08:52 KFIT 190852Z AUTO 00000KT 10SM CLR 02/00 A2998 RMK AO2 SLP156 T00170000 53005
 
KMHT - Manchester, New Hampshire, USA
Distance from station: NNW 35mi, 56km
Updated: Sat, 19-Oct-2019 4:53am EDT
Few Clouds
Few Clouds
 Wind from calm
Wind: Calm
Temperature: 45°F , 7°C
Dew Point: 34°F , 1°C
Humidity: 66%
Barometer: 29.95 inHg , 1014.2 hPa
Clouds: Few Clouds
Visibility: 10 miles , 16 km
Cloud details: Few Clouds 3400 ft
2019/10/19 08:53 KMHT 190853Z 00000KT 10SM FEW034 07/01 A2995 RMK AO2 SLP156 T00670006 53007
KGHG - Marshfield, Massachusetts, USA
Distance from station: SE 37mi, 59km
Updated: Sat, 19-Oct-2019 5:15am EDT
Clear
Clear
 Wind from varies
Wind: varies 5 mph , 7 km/h
Temperature: 39°F , 4°C
Wind Chill: 35°F , 2°C
Dew Point: 37°F , 3°C
Humidity: 93%
Barometer: 29.96 inHg , 1014.6 hPa
Clouds: Clear
Visibility: 10 miles , 16 km
2019/10/19 09:15 KGHG 190915Z AUTO VRB04KT 10SM CLR 04/03 A2996 RMK AO2
 
KORH - Worcester, Massachusetts, USA
Distance from station: WSW 37mi, 59km
Updated: Sat, 19-Oct-2019 4:54am EDT
Clear
Clear
 Wind from W
Wind: W 7 mph , 11 km/h
Temperature: 36°F , 2°C
Wind Chill: 30°F , -1°C
Dew Point: 32°F , 0°C
Humidity: 87%
Barometer: 29.97 inHg , 1014.9 hPa
Clouds: Clear
Visibility: 10 miles , 16 km
2019/10/19 08:54 KORH 190854Z 26006KT 10SM CLR 02/00 A2997 RMK AO2 SLP155 T00170000 53007
KSFZ - Pawtucket, Rhode Island, USA
Distance from station: SSW 41mi, 65km
Updated: Sat, 19-Oct-2019 4:56am EDT
Clear
Clear
 Wind from W
Wind: W 5 mph , 7 km/h
Barometer: 29.99 inHg , 1015.6 hPa
Clouds: Clear
Visibility: 10 miles , 16 km
2019/10/19 08:56 KSFZ 190856Z AUTO 26004KT 10SM CLR A2999 RMK AO2 SLPNO 53007 FZRANO $
 
KTAN - Taunton, Massachusetts, USA
Distance from station: SSE 41mi, 66km
Updated: Sat, 19-Oct-2019 4:52am EDT
Clear
Clear
 Wind from W
Wind: W 3 mph , 6 km/h
Temperature: 39°F , 4°C
Dew Point: 34°F , 1°C
Humidity: 81%
Barometer: 29.97 inHg , 1014.9 hPa
Clouds: Clear
Visibility: 10 miles , 16 km
2019/10/19 08:52 KTAN 190852Z AUTO 28003KT 10SM CLR 04/01 A2997 RMK AO2 SLP150 T00390011 53006
KPYM - Plymouth, Massachusetts, USA
Distance from station: SSE 44mi, 71km
Updated: Sat, 19-Oct-2019 4:52am EDT
Clear
Clear
 Wind from W
Wind: W 7 mph , 11 km/h
Temperature: 39°F , 4°C
Wind Chill: 34°F , 1°C
Dew Point: 36°F , 2°C
Humidity: 87%
Barometer: 29.96 inHg , 1014.6 hPa
Clouds: Clear
Visibility: 10 miles , 16 km
2019/10/19 08:52 KPYM 190852Z AUTO 28006KT 10SM CLR 04/02 A2996 RMK AO2 SLP147 T00440017 53005
 
KPSM - Portsmouth/Pease, New Hampshire, USA
Distance from station: NNE 46mi, 74km
Updated: Sat, 19-Oct-2019 4:56am EDT
Clear
Clear
 Wind from W
Wind: W 8 mph , 13 km/h
Temperature: 43°F , 6°C
Wind Chill: 38°F , 3°C
Dew Point: 36°F , 2°C
Humidity: 76%
Barometer: 29.93 inHg , 1013.5 hPa
Clouds: Clear
Visibility: 10 miles , 16 km
2019/10/19 08:56 KPSM 190856Z 27007KT 10SM CLR 06/02 A2993 RMK AO2A SLP138 T00560017 52008
KAFN - Jaffrey, New Hampshire, USA
Distance from station: WNW 47mi, 76km
Updated: Sat, 19-Oct-2019 4:52am EDT
Clear
Clear
 Wind from varies
Wind: varies 5 mph , 7 km/h
Temperature: 39°F , 4°C
Wind Chill: 35°F , 2°C
Dew Point: 32°F , 0°C
Humidity: 75%
Barometer: 29.96 inHg , 1014.6 hPa
Clouds: Clear
Visibility: 10 miles , 16 km
2019/10/19 08:52 KAFN 190852Z AUTO VRB04KT 10SM CLR 04/00 A2996 RMK AO2 SLP155 T00440000 53005